Terminal Aerodrome Forecast
Issued by NWS

Home | Current Version | Previous Version | Text Only | Print | Product List | Glossary On
Versions: 1 2 3 4 5 6 7 8 9 10 11 12 13 14 15 16 17
130
FTUS41 KBGM 242320
TAFELM
TAF
KELM 242320Z 2500/2524 VRB03KT P6SM SKC
     FM250600 00000KT 3SM BR SKC
     FM250900 00000KT 1SM BR SCT003
      TEMPO 2509/2513 1/2SM FG VV002
     FM251300 VRB03KT P6SM SCT015
     FM251430 03005KT P6SM SKC=

USA.gov is the U.S. government's official web portal to all federal, state and local government web resources and services.